Time;durP1;ratioP1;P1;durP2;ratioP2;P2;SDS_P1;SDS_P2;PMS_P1;PMS_P2;Temp;Humidity;BMP_temperature;BMP_pressure;BME280_temperature;BME280_humidity;BME280_pressure;Samples;Min_cycle;Max_cycle;Signal;HPM_P1;HPM_P2
2023/05/28 00:01:49;;;;;;;17.15;11.80;;;;;;;;;;5101571;27;20501;-75
2023/05/28 00:04:15;;;;;;;16.58;13.30;;;;;;;;;;5098994;27;20024;-78
2023/05/28 00:06:41;;;;;;;18.02;12.02;;;;;;;;;;5107609;27;20016;-78
2023/05/28 00:09:07;;;;;;;15.02;11.23;;;;;;;;;;5107170;27;20028;-77
2023/05/28 00:11:32;;;;;;;16.98;10.48;;;;;;;;;;5103552;27;20412;-77
2023/05/28 00:13:58;;;;;;;19.30;13.70;;;;;;;;;;5106035;27;20020;-75
2023/05/28 00:16:23;;;;;;;28.10;22.40;;;;;;;;;;5106589;27;20336;-75
2023/05/28 00:18:48;;;;;;;26.27;19.15;;;;;;;;;;5103695;27;20094;-74
2023/05/28 00:21:14;;;;;;;23.67;17.77;;;;;;;;;;5099874;27;20055;-75
2023/05/28 00:23:41;;;;;;;21.00;15.77;;;;;;;;;;5106999;27;20324;-76
2023/05/28 00:26:06;;;;;;;18.38;14.00;;;;;;;;;;5089822;27;20102;-78
2023/05/28 00:28:32;;;;;;;17.30;13.75;;;;;;;;;;5107752;27;20111;-77
2023/05/28 00:30:57;;;;;;;16.08;12.32;;;;;;;;;;5104790;27;20020;-74
2023/05/28 00:33:23;;;;;;;15.82;12.60;;;;;;;;;;5107164;27;20023;-76
2023/05/28 00:35:49;;;;;;;16.88;11.98;;;;;;;;;;5106331;27;20111;-78
2023/05/28 00:38:15;;;;;;;20.42;13.55;;;;;;;;;;5099938;27;20027;-76
2023/05/28 00:40:44;;;;;;;15.95;13.20;;;;;;;;;;5100134;27;20027;-78
2023/05/28 00:43:09;;;;;;;17.58;14.98;;;;;;;;;;5108831;27;20031;-76
2023/05/28 00:45:41;;;;;;;19.35;16.80;;;;;;;;;;5102292;27;20095;-75
2023/05/28 00:48:06;;;;;;;24.65;17.70;;;;;;;;;;5091161;27;20076;-78
2023/05/28 00:50:32;;;;;;;26.58;20.45;;;;;;;;;;5090675;28;20024;-74
2023/05/28 00:52:58;;;;;;;25.85;20.92;;;;;;;;;;5089736;27;20051;-77
2023/05/28 00:55:24;;;;;;;20.08;17.15;;;;;;;;;;5090819;28;20024;-76
2023/05/28 00:57:54;;;;;;;20.70;16.73;;;;;;;;;;5091494;28;20031;-76
2023/05/28 01:00:19;;;;;;;18.80;16.92;;;;;;;;;;5089923;27;20515;-77
2023/05/28 01:02:44;;;;;;;23.05;18.33;;;;;;;;;;5095004;28;20051;-76
2023/05/28 01:05:10;;;;;;;17.27;15.45;;;;;;;;;;5096999;27;20019;-76
2023/05/28 01:07:35;;;;;;;18.55;13.82;;;;;;;;;;5104603;27;20030;-75
2023/05/28 01:10:02;;;;;;;18.42;12.43;;;;;;;;;;5107892;27;20019;-76
2023/05/28 01:12:27;;;;;;;16.52;13.75;;;;;;;;;;5107279;27;20035;-79
2023/05/28 01:14:52;;;;;;;14.45;12.35;;;;;;;;;;5105565;27;20367;-79
2023/05/28 01:17:18;;;;;;;18.67;12.20;;;;;;;;;;5105226;27;20023;-78
2023/05/28 01:19:47;;;;;;;16.40;13.10;;;;;;;;;;5096048;27;20476;-75
2023/05/28 01:22:15;;;;;;;15.90;12.35;;;;;;;;;;5102652;27;20088;-74
2023/05/28 01:24:41;;;;;;;15.48;13.63;;;;;;;;;;5105531;27;20030;-76
2023/05/28 01:27:06;;;;;;;18.23;12.50;;;;;;;;;;5087625;28;20019;-77
2023/05/28 01:29:32;;;;;;;16.30;12.38;;;;;;;;;;5104505;27;20020;-77
2023/05/28 01:31:57;;;;;;;24.85;19.02;;;;;;;;;;5106404;28;20019;-77
2023/05/28 01:34:23;;;;;;;22.25;15.60;;;;;;;;;;5105297;27;20024;-78
2023/05/28 01:36:56;;;;;;;18.38;15.27;;;;;;;;;;5108977;27;20025;-78
2023/05/28 01:39:24;;;;;;;22.02;16.95;;;;;;;;;;5091156;27;20032;-75
2023/05/28 01:41:49;;;;;;;23.80;17.45;;;;;;;;;;5104753;27;20088;-77
2023/05/28 01:44:16;;;;;;;19.13;15.68;;;;;;;;;;5105730;27;20016;-77
2023/05/28 01:46:43;;;;;;;17.50;14.48;;;;;;;;;;5104353;27;20027;-75
2023/05/28 01:49:08;;;;;;;17.67;13.80;;;;;;;;;;5104489;27;20126;-75
2023/05/28 01:51:34;;;;;;;18.58;13.90;;;;;;;;;;5105511;27;20055;-78
2023/05/28 01:54:00;;;;;;;20.67;15.63;;;;;;;;;;5104287;27;20020;-78
2023/05/28 01:56:25;;;;;;;19.20;14.93;;;;;;;;;;5104678;27;20027;-77
2023/05/28 01:58:51;;;;;;;18.73;15.93;;;;;;;;;;5105774;27;20120;-77
2023/05/28 02:01:29;;;;;;;22.60;17.95;;;;;;;;;;5092960;27;20120;-76
2023/05/28 02:03:58;;;;;;;24.67;18.60;;;;;;;;;;5105466;27;20076;-76
2023/05/28 02:06:24;;;;;;;24.48;18.13;;;;;;;;;;5104637;28;20023;-74
2023/05/28 02:08:49;;;;;;;23.65;17.60;;;;;;;;;;5105347;27;20121;-76
2023/05/28 02:11:15;;;;;;;26.95;16.50;;;;;;;;;;5101878;28;20089;-75
2023/05/28 02:13:40;;;;;;;19.50;16.08;;;;;;;;;;5107118;27;20741;-76
2023/05/28 02:16:10;;;;;;;23.52;16.02;;;;;;;;;;5105488;27;20031;-77
2023/05/28 02:18:36;;;;;;;22.55;16.23;;;;;;;;;;5103198;28;20102;-76
2023/05/28 02:21:02;;;;;;;24.45;16.38;;;;;;;;;;5101458;28;20028;-76
2023/05/28 02:23:27;;;;;;;22.10;16.52;;;;;;;;;;5089465;28;20022;-75
2023/05/28 02:25:53;;;;;;;22.30;17.77;;;;;;;;;;5099992;28;20028;-77
2023/05/28 02:28:18;;;;;;;20.60;17.35;;;;;;;;;;5105260;28;20449;-76
2023/05/28 02:30:43;;;;;;;22.85;17.60;;;;;;;;;;5104418;28;20442;-76
2023/05/28 02:33:09;;;;;;;22.52;17.42;;;;;;;;;;5097444;28;21074;-76
2023/05/28 02:35:34;;;;;;;21.58;17.48;;;;;;;;;;5099246;28;20471;-77
2023/05/28 02:38:00;;;;;;;20.50;16.83;;;;;;;;;;5106631;28;20512;-75
2023/05/28 02:40:25;;;;;;;24.63;16.05;;;;;;;;;;5090237;28;20020;-76
2023/05/28 02:42:51;;;;;;;15.45;13.57;;;;;;;;;;5103858;28;20517;-76
2023/05/28 02:45:16;;;;;;;17.63;14.02;;;;;;;;;;5102844;28;20031;-80
2023/05/28 02:47:41;;;;;;;16.98;13.98;;;;;;;;;;5103126;28;20391;-74
2023/05/28 02:50:07;;;;;;;14.40;13.00;;;;;;;;;;5104056;28;20038;-76
2023/05/28 02:52:33;;;;;;;21.25;15.02;;;;;;;;;;5103024;28;20079;-76
2023/05/28 02:54:58;;;;;;;16.58;13.48;;;;;;;;;;5105042;28;20280;-77
2023/05/28 02:57:23;;;;;;;19.42;12.85;;;;;;;;;;5090164;28;20023;-78
2023/05/28 02:59:49;;;;;;;16.70;14.68;;;;;;;;;;5104786;28;20311;-77
2023/05/28 03:02:14;;;;;;;23.80;15.63;;;;;;;;;;5106053;28;20345;-77
2023/05/28 03:04:40;;;;;;;20.52;15.52;;;;;;;;;;5105343;28;20121;-78
2023/05/28 03:07:05;;;;;;;20.30;14.88;;;;;;;;;;5104998;28;20363;-78
2023/05/28 03:09:30;;;;;;;20.25;14.90;;;;;;;;;;5103649;28;20015;-76
2023/05/28 03:11:56;;;;;;;20.27;15.88;;;;;;;;;;5102375;28;20036;-76
2023/05/28 03:14:21;;;;;;;19.65;16.63;;;;;;;;;;5104656;28;20019;-77
2023/05/28 03:16:47;;;;;;;18.35;15.60;;;;;;;;;;5106351;28;20487;-78
2023/05/28 03:19:12;;;;;;;17.95;15.43;;;;;;;;;;5105702;28;20076;-76
2023/05/28 03:21:38;;;;;;;24.27;16.30;;;;;;;;;;5098552;28;20438;-76
2023/05/28 03:24:03;;;;;;;19.08;15.25;;;;;;;;;;5088334;28;20019;-75
2023/05/28 03:26:28;;;;;;;17.02;14.45;;;;;;;;;;5086729;28;20023;-74
2023/05/28 03:28:54;;;;;;;18.08;14.57;;;;;;;;;;5087957;28;20058;-77
2023/05/28 03:31:19;;;;;;;18.00;15.35;;;;;;;;;;5087879;28;20027;-76
2023/05/28 03:33:45;;;;;;;17.58;15.63;;;;;;;;;;5088507;28;20030;-78
2023/05/28 03:36:10;;;;;;;17.17;14.18;;;;;;;;;;5090606;27;20027;-79
2023/05/28 03:38:35;;;;;;;18.02;15.13;;;;;;;;;;5089395;27;20454;-79
2023/05/28 03:41:01;;;;;;;17.52;14.02;;;;;;;;;;5090420;28;20108;-78
2023/05/28 03:43:26;;;;;;;18.55;14.68;;;;;;;;;;5093871;27;20020;-76
2023/05/28 03:45:51;;;;;;;18.13;14.55;;;;;;;;;;5108653;27;20114;-76
2023/05/28 03:48:17;;;;;;;17.20;14.23;;;;;;;;;;5094172;28;20127;-76
2023/05/28 03:50:42;;;;;;;17.75;13.88;;;;;;;;;;5105679;28;20027;-78
2023/05/28 03:53:07;;;;;;;17.25;14.48;;;;;;;;;;5106081;27;20035;-76
2023/05/28 03:55:33;;;;;;;17.67;13.60;;;;;;;;;;5073472;28;20094;-78
2023/05/28 03:57:58;;;;;;;16.88;14.65;;;;;;;;;;5090445;28;20084;-76
2023/05/28 04:00:24;;;;;;;19.40;13.95;;;;;;;;;;5091809;27;20435;-76
2023/05/28 04:02:49;;;;;;;23.88;17.10;;;;;;;;;;5090323;27;20042;-74
2023/05/28 04:05:14;;;;;;;26.27;17.05;;;;;;;;;;5090109;27;20095;-76
2023/05/28 04:07:40;;;;;;;23.10;15.77;;;;;;;;;;5091749;27;20155;-77
2023/05/28 04:10:06;;;;;;;21.90;15.30;;;;;;;;;;5089743;27;20043;-77
2023/05/28 04:12:31;;;;;;;23.05;17.92;;;;;;;;;;5090279;27;20039;-77
2023/05/28 04:14:57;;;;;;;20.05;15.38;;;;;;;;;;5090656;28;20020;-76
2023/05/28 04:17:22;;;;;;;22.73;16.15;;;;;;;;;;5076334;28;20028;-79
2023/05/28 04:19:48;;;;;;;23.42;18.60;;;;;;;;;;5090981;28;20458;-77
2023/05/28 04:22:13;;;;;;;21.63;18.10;;;;;;;;;;5089827;27;20030;-77
2023/05/28 04:24:38;;;;;;;20.67;17.15;;;;;;;;;;5090727;27;20020;-74
2023/05/28 04:27:04;;;;;;;23.98;17.67;;;;;;;;;;5089004;27;20279;-77
2023/05/28 04:29:30;;;;;;;20.38;16.38;;;;;;;;;;5090329;28;20099;-76
2023/05/28 04:31:57;;;;;;;23.92;16.85;;;;;;;;;;5088853;28;20031;-75
2023/05/28 04:34:25;;;;;;;25.27;21.75;;;;;;;;;;5073815;28;20066;-77
2023/05/28 04:36:51;;;;;;;24.77;20.20;;;;;;;;;;5091104;27;20024;-77
2023/05/28 04:39:17;;;;;;;32.05;17.77;;;;;;;;;;5090949;27;20034;-74
2023/05/28 04:41:43;;;;;;;24.83;17.92;;;;;;;;;;5089897;28;20015;-76
2023/05/28 04:44:08;;;;;;;24.10;18.85;;;;;;;;;;5096991;27;20027;-76
2023/05/28 04:46:36;;;;;;;24.65;19.08;;;;;;;;;;5106727;27;20408;-76
2023/05/28 04:49:02;;;;;;;28.88;18.23;;;;;;;;;;5104988;27;20395;-75
2023/05/28 04:51:27;;;;;;;23.15;18.55;;;;;;;;;;5108882;27;20106;-76
2023/05/28 04:53:53;;;;;;;24.75;18.70;;;;;;;;;;5095626;27;20099;-75
2023/05/28 04:56:18;;;;;;;25.70;17.83;;;;;;;;;;5072584;28;20298;-75
2023/05/28 04:58:46;;;;;;;23.58;18.42;;;;;;;;;;5098039;27;20019;-76
2023/05/28 05:01:14;;;;;;;24.13;18.88;;;;;;;;;;5091643;28;20015;-75
2023/05/28 05:03:40;;;;;;;18.88;16.13;;;;;;;;;;5080402;27;20115;-75
2023/05/28 05:06:06;;;;;;;20.45;16.55;;;;;;;;;;5106840;27;21139;-77
2023/05/28 05:08:32;;;;;;;21.58;17.88;;;;;;;;;;5105187;27;20096;-77
2023/05/28 05:10:57;;;;;;;19.83;16.77;;;;;;;;;;5104910;27;20044;-74
2023/05/28 05:13:23;;;;;;;21.75;16.80;;;;;;;;;;5104987;27;20608;-75
2023/05/28 05:15:48;;;;;;;18.60;16.65;;;;;;;;;;5105608;27;20019;-77
2023/05/28 05:18:14;;;;;;;19.73;15.13;;;;;;;;;;5099246;27;20066;-76
2023/05/28 05:20:39;;;;;;;17.10;15.38;;;;;;;;;;5089659;28;20016;-75
2023/05/28 05:23:05;;;;;;;18.98;15.98;;;;;;;;;;5089990;27;20027;-78
2023/05/28 05:25:30;;;;;;;19.50;17.40;;;;;;;;;;5074199;28;20027;-76
2023/05/28 05:27:55;;;;;;;22.00;18.85;;;;;;;;;;5095872;28;20024;-76
2023/05/28 05:30:21;;;;;;;21.67;18.05;;;;;;;;;;5098805;27;20019;-74
2023/05/28 05:32:46;;;;;;;22.92;17.52;;;;;;;;;;5088727;28;20035;-78
2023/05/28 05:35:12;;;;;;;20.58;18.38;;;;;;;;;;5088809;27;20035;-76
2023/05/28 05:37:38;;;;;;;21.30;17.52;;;;;;;;;;5088414;27;20019;-78
2023/05/28 05:40:05;;;;;;;24.40;18.17;;;;;;;;;;5087479;27;20111;-76
2023/05/28 05:42:30;;;;;;;24.80;18.20;;;;;;;;;;5093843;27;20417;-79
2023/05/28 05:44:55;;;;;;;18.92;16.83;;;;;;;;;;5103402;27;20118;-76
2023/05/28 05:47:21;;;;;;;20.65;18.45;;;;;;;;;;5103141;28;20427;-76
2023/05/28 05:49:46;;;;;;;21.70;16.55;;;;;;;;;;5105402;27;20322;-77
2023/05/28 05:52:12;;;;;;;19.50;17.23;;;;;;;;;;5089616;28;20311;-77
2023/05/28 05:54:37;;;;;;;19.60;17.20;;;;;;;;;;5090049;28;20022;-77
2023/05/28 05:57:03;;;;;;;20.17;17.38;;;;;;;;;;5103889;27;20015;-77
2023/05/28 05:59:28;;;;;;;23.83;18.23;;;;;;;;;;5104100;27;20456;-77
2023/05/28 06:01:53;;;;;;;19.33;17.38;;;;;;;;;;5107306;27;20070;-76
2023/05/28 06:04:19;;;;;;;19.95;17.95;;;;;;;;;;5103286;27;20383;-75
2023/05/28 06:06:45;;;;;;;22.15;19.17;;;;;;;;;;5102823;27;20372;-76
2023/05/28 06:09:10;;;;;;;21.08;17.95;;;;;;;;;;5103075;27;20410;-75
2023/05/28 06:11:36;;;;;;;23.50;20.25;;;;;;;;;;5095307;28;20039;-78
2023/05/28 06:14:01;;;;;;;23.30;20.70;;;;;;;;;;5078280;28;20370;-76
2023/05/28 06:16:28;;;;;;;26.17;21.88;;;;;;;;;;5097843;28;20027;-76
2023/05/28 06:18:53;;;;;;;26.65;22.10;;;;;;;;;;5105007;28;20032;-75
2023/05/28 06:21:18;;;;;;;23.08;20.77;;;;;;;;;;5102809;28;20413;-76
2023/05/28 06:23:44;;;;;;;22.70;19.48;;;;;;;;;;5095998;28;20450;-77
2023/05/28 06:26:09;;;;;;;23.08;20.65;;;;;;;;;;5098426;28;20430;-77
2023/05/28 06:28:35;;;;;;;23.20;20.70;;;;;;;;;;5101097;28;20023;-76
2023/05/28 06:31:00;;;;;;;23.45;20.95;;;;;;;;;;5087995;28;20046;-79
2023/05/28 06:33:26;;;;;;;23.38;20.92;;;;;;;;;;5089647;28;20016;-77
2023/05/28 06:35:51;;;;;;;24.23;20.05;;;;;;;;;;5089456;28;20058;-73
2023/05/28 06:38:16;;;;;;;25.48;22.80;;;;;;;;;;5102549;28;20028;-74
2023/05/28 06:40:42;;;;;;;22.80;20.33;;;;;;;;;;5104343;28;20093;-76
2023/05/28 06:43:07;;;;;;;24.70;21.08;;;;;;;;;;5105199;28;20034;-75
2023/05/28 06:45:33;;;;;;;24.33;21.30;;;;;;;;;;5102186;28;20038;-74
2023/05/28 06:47:59;;;;;;;25.48;21.92;;;;;;;;;;5088152;28;20032;-73
2023/05/28 06:50:24;;;;;;;25.30;21.95;;;;;;;;;;5103543;28;20102;-72
2023/05/28 06:52:50;;;;;;;26.15;21.15;;;;;;;;;;5090521;28;20468;-75
2023/05/28 06:55:15;;;;;;;27.27;23.30;;;;;;;;;;5097277;28;20426;-72
2023/05/28 06:57:41;;;;;;;23.77;21.27;;;;;;;;;;5095244;28;20023;-75
2023/05/28 07:00:14;;;;;;;24.48;22.00;;;;;;;;;;5088123;28;20393;-73
2023/05/28 07:02:39;;;;;;;29.08;22.25;;;;;;;;;;5100113;28;20046;-74
2023/05/28 07:05:04;;;;;;;27.42;21.83;;;;;;;;;;5105038;28;20430;-74
2023/05/28 07:07:31;;;;;;;28.65;22.73;;;;;;;;;;5106940;28;20043;-74
2023/05/28 07:09:56;;;;;;;24.75;20.92;;;;;;;;;;5105298;28;20426;-74
2023/05/28 07:12:21;;;;;;;23.92;20.77;;;;;;;;;;5107206;27;20032;-73
2023/05/28 07:14:47;;;;;;;24.90;19.98;;;;;;;;;;5109009;27;20491;-74
2023/05/28 07:17:12;;;;;;;23.85;20.58;;;;;;;;;;5108527;27;20098;-75
2023/05/28 07:19:37;;;;;;;23.55;20.85;;;;;;;;;;5095247;27;20031;-74
2023/05/28 07:22:03;;;;;;;27.38;24.00;;;;;;;;;;5090730;28;20042;-75
2023/05/28 07:24:28;;;;;;;79.30;55.40;;;;;;;;;;5101136;27;20037;-75
2023/05/28 07:26:54;;;;;;;48.85;37.75;;;;;;;;;;5095711;27;20035;-75
2023/05/28 07:29:19;;;;;;;36.47;28.55;;;;;;;;;;5106417;27;20055;-74
2023/05/28 07:31:44;;;;;;;27.45;23.42;;;;;;;;;;5108863;27;20391;-76
2023/05/28 07:34:10;;;;;;;28.33;24.40;;;;;;;;;;5106425;27;20457;-77
2023/05/28 07:36:37;;;;;;;27.92;24.95;;;;;;;;;;5108175;27;20106;-78
2023/05/28 07:39:03;;;;;;;25.40;22.77;;;;;;;;;;5106789;27;20533;-78
2023/05/28 07:41:29;;;;;;;25.83;22.20;;;;;;;;;;5107407;27;20030;-76
2023/05/28 07:43:54;;;;;;;21.75;18.98;;;;;;;;;;5101249;27;20346;-77
2023/05/28 07:46:21;;;;;;;22.52;18.85;;;;;;;;;;5101011;27;20028;-77
2023/05/28 07:48:47;;;;;;;20.40;17.77;;;;;;;;;;5107144;27;20041;-77
2023/05/28 07:51:12;;;;;;;21.40;17.90;;;;;;;;;;5107041;27;20035;-78
2023/05/28 07:53:37;;;;;;;23.63;19.67;;;;;;;;;;5108721;27;20020;-78
2023/05/28 07:56:03;;;;;;;22.13;17.80;;;;;;;;;;5090784;27;20034;-77
2023/05/28 07:58:28;;;;;;;20.00;16.65;;;;;;;;;;5104124;27;20059;-76
2023/05/28 08:00:54;;;;;;;20.85;17.85;;;;;;;;;;5104229;27;20047;-75
2023/05/28 08:03:19;;;;;;;19.00;16.58;;;;;;;;;;5098551;28;20081;-76
2023/05/28 08:05:45;;;;;;;21.60;19.27;;;;;;;;;;5097826;28;20076;-76
2023/05/28 08:08:10;;;;;;;20.15;18.08;;;;;;;;;;5106583;27;20405;-75
2023/05/28 08:10:36;;;;;;;19.33;17.25;;;;;;;;;;5095719;27;20492;-75
2023/05/28 08:13:01;;;;;;;26.50;21.13;;;;;;;;;;5092134;27;20076;-75
2023/05/28 08:15:26;;;;;;;23.17;20.77;;;;;;;;;;5091156;27;20027;-78
2023/05/28 08:17:52;;;;;;;18.40;15.60;;;;;;;;;;5092209;27;20452;-76
2023/05/28 08:20:17;;;;;;;18.38;15.82;;;;;;;;;;5073135;28;20020;-75
2023/05/28 08:22:42;;;;;;;19.77;17.67;;;;;;;;;;5098709;27;20469;-74
2023/05/28 08:25:08;;;;;;;16.70;15.00;;;;;;;;;;5104053;27;20023;-76
2023/05/28 08:27:34;;;;;;;17.23;15.50;;;;;;;;;;5095452;27;20020;-76
2023/05/28 08:29:59;;;;;;;17.02;15.15;;;;;;;;;;5100587;27;20027;-75
2023/05/28 08:32:25;;;;;;;17.52;14.38;;;;;;;;;;5105174;27;20391;-76
2023/05/28 08:34:50;;;;;;;17.33;15.55;;;;;;;;;;5106763;27;20031;-76
2023/05/28 08:37:16;;;;;;;20.02;16.67;;;;;;;;;;5107670;27;20450;-76
2023/05/28 08:39:41;;;;;;;17.73;15.98;;;;;;;;;;5107165;27;20027;-76
2023/05/28 08:42:07;;;;;;;19.42;17.42;;;;;;;;;;5106596;27;20433;-76
2023/05/28 08:44:32;;;;;;;21.00;17.50;;;;;;;;;;5105168;28;20023;-75
2023/05/28 08:46:59;;;;;;;19.15;17.15;;;;;;;;;;5105481;27;20426;-76
2023/05/28 08:49:32;;;;;;;21.77;17.45;;;;;;;;;;5106424;27;20023;-75
2023/05/28 08:51:59;;;;;;;20.90;18.70;;;;;;;;;;5106073;27;20044;-76
2023/05/28 08:54:25;;;;;;;22.77;20.38;;;;;;;;;;5107701;27;20104;-76
2023/05/28 08:56:50;;;;;;;20.30;18.15;;;;;;;;;;5103307;28;20085;-76
2023/05/28 08:59:16;;;;;;;23.85;21.05;;;;;;;;;;5105377;27;20039;-76
2023/05/28 09:01:41;;;;;;;22.08;19.23;;;;;;;;;;5105852;27;20037;-76
2023/05/28 09:04:07;;;;;;;24.33;19.67;;;;;;;;;;5105839;27;20548;-76
2023/05/28 09:06:35;;;;;;;21.92;19.05;;;;;;;;;;5107239;27;20034;-74
2023/05/28 09:09:02;;;;;;;25.23;18.75;;;;;;;;;;5106829;27;20396;-77
2023/05/28 09:11:27;;;;;;;20.77;18.58;;;;;;;;;;5104567;27;20164;-76
2023/05/28 09:13:52;;;;;;;20.55;18.15;;;;;;;;;;5105017;27;20106;-74
2023/05/28 09:16:21;;;;;;;22.70;19.20;;;;;;;;;;5104525;27;20067;-75
2023/05/28 09:18:51;;;;;;;23.52;19.45;;;;;;;;;;5104171;27;20027;-75
2023/05/28 09:21:16;;;;;;;23.35;18.30;;;;;;;;;;5106327;27;20039;-75
2023/05/28 09:23:44;;;;;;;19.30;16.80;;;;;;;;;;5105605;27;20338;-75
2023/05/28 09:26:09;;;;;;;19.75;16.90;;;;;;;;;;5107005;27;20022;-75
2023/05/28 09:28:35;;;;;;;20.55;16.35;;;;;;;;;;5105830;27;20024;-75
2023/05/28 09:31:04;;;;;;;18.88;16.75;;;;;;;;;;5106680;27;20030;-75
2023/05/28 09:33:29;;;;;;;20.55;17.08;;;;;;;;;;5105351;27;20069;-75
2023/05/28 09:36:01;;;;;;;18.83;16.90;;;;;;;;;;5105441;27;20031;-74
2023/05/28 09:38:27;;;;;;;18.63;16.15;;;;;;;;;;5106791;27;20016;-75
2023/05/28 09:40:55;;;;;;;19.65;16.75;;;;;;;;;;5105601;27;20455;-75
2023/05/28 09:43:28;;;;;;;20.67;17.70;;;;;;;;;;5105059;27;20023;-76
2023/05/28 09:46:05;;;;;;;20.73;18.52;;;;;;;;;;5106381;27;20066;-75
2023/05/28 09:48:31;;;;;;;19.35;16.13;;;;;;;;;;5104166;27;20042;-77
2023/05/28 09:50:57;;;;;;;17.25;15.55;;;;;;;;;;5104098;27;20362;-75
2023/05/28 09:53:23;;;;;;;18.30;15.77;;;;;;;;;;5106110;27;20303;-76
2023/05/28 09:55:49;;;;;;;18.00;16.05;;;;;;;;;;5103962;27;20323;-76
2023/05/28 09:58:15;;;;;;;18.35;16.42;;;;;;;;;;5104411;28;20076;-76
2023/05/28 10:00:44;;;;;;;18.65;16.08;;;;;;;;;;5103803;27;20048;-76
2023/05/28 10:03:12;;;;;;;22.38;19.08;;;;;;;;;;5104627;28;20042;-76
2023/05/28 10:05:40;;;;;;;17.80;14.88;;;;;;;;;;5103094;27;20066;-76
2023/05/28 10:08:07;;;;;;;17.17;15.15;;;;;;;;;;5102638;27;20492;-76
2023/05/28 10:10:33;;;;;;;17.50;15.70;;;;;;;;;;5104059;27;20044;-76
2023/05/28 10:12:58;;;;;;;16.08;14.43;;;;;;;;;;5104524;27;20378;-76
2023/05/28 10:15:24;;;;;;;15.77;13.75;;;;;;;;;;5104926;28;20027;-75
2023/05/28 10:17:50;;;;;;;19.38;15.77;;;;;;;;;;5104178;28;20023;-76
2023/05/28 10:20:16;;;;;;;20.23;15.75;;;;;;;;;;5104949;27;20023;-75
2023/05/28 10:22:42;;;;;;;13.13;11.55;;;;;;;;;;5104871;28;20034;-76
2023/05/28 10:25:08;;;;;;;13.68;11.38;;;;;;;;;;5104448;28;20080;-75
2023/05/28 10:27:34;;;;;;;11.32;10.00;;;;;;;;;;5104737;28;20635;-76
2023/05/28 10:30:03;;;;;;;10.15;9.07;;;;;;;;;;5104878;28;20050;-76
2023/05/28 10:32:28;;;;;;;11.02;8.85;;;;;;;;;;5106396;28;20035;-77
2023/05/28 10:35:01;;;;;;;10.00;9.00;;;;;;;;;;5103191;28;20109;-76
2023/05/28 10:37:26;;;;;;;13.10;8.98;;;;;;;;;;5105318;28;20032;-75
2023/05/28 10:39:52;;;;;;;9.93;8.52;;;;;;;;;;5106683;28;20118;-75
2023/05/28 10:42:18;;;;;;;10.15;8.45;;;;;;;;;;5104264;28;20035;-75
2023/05/28 10:45:04;;;;;;;9.27;8.30;;;;;;;;;;5104954;27;20024;-74
2023/05/28 10:47:33;;;;;;;8.32;7.22;;;;;;;;;;5109787;27;20035;-74
2023/05/28 10:49:59;;;;;;;8.55;7.72;;;;;;;;;;5109203;27;20031;-77
2023/05/28 10:52:25;;;;;;;8.70;7.82;;;;;;;;;;5107233;27;20070;-77
2023/05/28 10:54:52;;;;;;;9.40;8.50;;;;;;;;;;5110396;27;20085;-75
2023/05/28 10:57:18;;;;;;;11.43;7.40;;;;;;;;;;5109127;27;20050;-75
2023/05/28 10:59:44;;;;;;;8.60;7.65;;;;;;;;;;5108951;27;20023;-75
2023/05/28 11:02:10;;;;;;;10.05;7.63;;;;;;;;;;5107959;27;20050;-77
2023/05/28 11:04:36;;;;;;;9.82;7.78;;;;;;;;;;5091590;27;20485;-75
2023/05/28 11:07:01;;;;;;;8.73;7.93;;;;;;;;;;5108521;27;20028;-75
2023/05/28 11:09:27;;;;;;;8.63;7.72;;;;;;;;;;5107655;27;20019;-75
2023/05/28 11:11:53;;;;;;;7.93;7.13;;;;;;;;;;5107745;27;20104;-75
2023/05/28 11:14:18;;;;;;;8.30;7.47;;;;;;;;;;5108713;27;20061;-75
2023/05/28 11:16:43;;;;;;;8.32;7.55;;;;;;;;;;5108850;27;20123;-77
2023/05/28 11:19:09;;;;;;;8.38;7.57;;;;;;;;;;5106796;27;20027;-75
2023/05/28 11:21:49;;;;;;;7.78;7.07;;;;;;;;;;5107636;27;20034;-76
2023/05/28 11:24:14;;;;;;;8.90;7.72;;;;;;;;;;5106177;27;20079;-75
2023/05/28 11:26:39;;;;;;;8.35;7.13;;;;;;;;;;5108156;27;20031;-77
2023/05/28 11:29:05;;;;;;;8.48;7.38;;;;;;;;;;5107812;27;20059;-75
2023/05/28 11:31:37;;;;;;;7.75;6.68;;;;;;;;;;5105953;27;20047;-75
2023/05/28 11:34:02;;;;;;;7.82;7.03;;;;;;;;;;5107699;27;20027;-75
2023/05/28 11:36:27;;;;;;;7.13;6.53;;;;;;;;;;5109170;27;20656;-76
2023/05/28 11:39:02;;;;;;;7.50;6.80;;;;;;;;;;5105591;27;20030;-76
2023/05/28 11:41:28;;;;;;;7.32;6.63;;;;;;;;;;5105513;27;20049;-77
2023/05/28 11:43:54;;;;;;;7.10;6.32;;;;;;;;;;5107057;27;20028;-76
2023/05/28 11:46:21;;;;;;;8.55;6.22;;;;;;;;;;5109199;27;20099;-76
2023/05/28 11:48:47;;;;;;;7.40;6.65;;;;;;;;;;5105133;27;20475;-77
2023/05/28 11:51:12;;;;;;;7.68;5.72;;;;;;;;;;5107643;27;20110;-76
2023/05/28 11:53:41;;;;;;;7.07;5.68;;;;;;;;;;5104540;27;20019;-76
2023/05/28 11:56:08;;;;;;;6.90;5.30;;;;;;;;;;5108137;27;20031;-76
2023/05/28 11:58:33;;;;;;;6.35;5.75;;;;;;;;;;5107788;27;20038;-76
2023/05/28 12:01:00;;;;;;;6.97;5.97;;;;;;;;;;5109010;27;20606;-77
2023/05/28 12:03:26;;;;;;;6.78;5.18;;;;;;;;;;5106166;27;20032;-76
2023/05/28 12:05:51;;;;;;;5.93;5.22;;;;;;;;;;5107319;27;20046;-74
2023/05/28 12:08:20;;;;;;;5.72;5.13;;;;;;;;;;5106099;27;20118;-76
2023/05/28 12:10:45;;;;;;;5.28;4.78;;;;;;;;;;5107850;27;20146;-75
2023/05/28 12:13:14;;;;;;;5.78;5.28;;;;;;;;;;5091924;28;20461;-75
2023/05/28 12:15:39;;;;;;;8.73;5.25;;;;;;;;;;5104263;27;20353;-78
2023/05/28 12:18:05;;;;;;;7.70;5.43;;;;;;;;;;5089851;28;20034;-76
2023/05/28 12:20:30;;;;;;;5.18;4.70;;;;;;;;;;5086546;27;20327;-76
2023/05/28 12:23:03;;;;;;;4.65;4.35;;;;;;;;;;5107034;27;20032;-77
2023/05/28 12:25:28;;;;;;;5.07;4.57;;;;;;;;;;5105432;27;20075;-77
2023/05/28 12:27:54;;;;;;;6.20;4.55;;;;;;;;;;5106110;27;20421;-76
2023/05/28 12:30:19;;;;;;;6.50;4.82;;;;;;;;;;5105484;27;20019;-76
2023/05/28 12:32:44;;;;;;;6.72;4.57;;;;;;;;;;5107461;27;20088;-75
2023/05/28 12:35:10;;;;;;;4.82;4.43;;;;;;;;;;5108601;27;20072;-76
2023/05/28 12:37:35;;;;;;;5.30;4.85;;;;;;;;;;5106476;27;20031;-76
2023/05/28 12:40:00;;;;;;;5.07;4.53;;;;;;;;;;5108275;27;20027;-76
2023/05/28 12:42:26;;;;;;;4.88;4.40;;;;;;;;;;5105084;27;20035;-77
2023/05/28 12:44:51;;;;;;;5.47;4.47;;;;;;;;;;5104591;27;20137;-76
2023/05/28 12:47:16;;;;;;;5.10;4.25;;;;;;;;;;5107734;27;20034;-76
2023/05/28 12:49:42;;;;;;;5.35;4.05;;;;;;;;;;5105804;27;20740;-77
2023/05/28 12:52:07;;;;;;;3.92;3.63;;;;;;;;;;5106230;27;20031;-77
2023/05/28 12:54:33;;;;;;;5.07;3.75;;;;;;;;;;5106280;27;20024;-77
2023/05/28 12:56:58;;;;;;;4.38;3.78;;;;;;;;;;5107809;27;20138;-76
2023/05/28 12:59:25;;;;;;;4.85;3.95;;;;;;;;;;5106494;27;20497;-75
2023/05/28 13:01:50;;;;;;;4.50;4.10;;;;;;;;;;5105598;27;20027;-76
2023/05/28 13:04:16;;;;;;;4.30;3.90;;;;;;;;;;5106660;27;20385;-77
2023/05/28 13:06:42;;;;;;;4.43;4.03;;;;;;;;;;5106090;27;20454;-77
2023/05/28 13:09:09;;;;;;;6.45;4.43;;;;;;;;;;5105811;27;20023;-76
2023/05/28 13:11:35;;;;;;;6.03;4.20;;;;;;;;;;5107345;27;20061;-76
2023/05/28 13:14:00;;;;;;;4.63;4.22;;;;;;;;;;5105405;27;20506;-76
2023/05/28 13:16:25;;;;;;;5.03;3.85;;;;;;;;;;5105806;27;20027;-76
2023/05/28 13:18:51;;;;;;;4.65;4.00;;;;;;;;;;5106136;27;20027;-76
2023/05/28 13:21:16;;;;;;;4.55;3.85;;;;;;;;;;5104111;27;20048;-76
2023/05/28 13:23:41;;;;;;;6.00;4.43;;;;;;;;;;5104937;27;20035;-77
2023/05/28 13:26:07;;;;;;;4.47;4.07;;;;;;;;;;5104872;27;20027;-74
2023/05/28 13:28:32;;;;;;;4.57;4.15;;;;;;;;;;5107228;27;20088;-76
2023/05/28 13:30:57;;;;;;;4.43;4.03;;;;;;;;;;5104178;27;20520;-75
2023/05/28 13:33:23;;;;;;;5.07;4.40;;;;;;;;;;5107322;27;20036;-77
2023/05/28 13:35:48;;;;;;;6.13;4.13;;;;;;;;;;5104554;27;21108;-75
2023/05/28 13:38:13;;;;;;;4.65;4.28;;;;;;;;;;5105749;27;20051;-76
2023/05/28 13:40:39;;;;;;;6.20;4.65;;;;;;;;;;5103913;28;20020;-76
2023/05/28 13:43:06;;;;;;;5.28;4.72;;;;;;;;;;5104902;27;20031;-76
2023/05/28 13:45:32;;;;;;;6.85;4.75;;;;;;;;;;5104421;27;20058;-75
2023/05/28 13:47:57;;;;;;;6.20;5.00;;;;;;;;;;5106881;27;20047;-76
2023/05/28 13:50:23;;;;;;;7.43;4.60;;;;;;;;;;5103990;27;20023;-77
2023/05/28 13:52:48;;;;;;;6.43;4.60;;;;;;;;;;5106358;27;20042;-76
2023/05/28 13:55:14;;;;;;;4.90;4.50;;;;;;;;;;5103562;27;20019;-76
2023/05/28 13:57:39;;;;;;;5.97;4.53;;;;;;;;;;5105572;27;20075;-75
2023/05/28 14:00:07;;;;;;;6.05;5.25;;;;;;;;;;5102247;27;20023;-76
2023/05/28 14:02:32;;;;;;;5.38;4.05;;;;;;;;;;5104019;27;20073;-75
2023/05/28 14:04:58;;;;;;;5.38;4.88;;;;;;;;;;5089922;28;20028;-76
2023/05/28 14:07:23;;;;;;;5.45;4.30;;;;;;;;;;5103762;27;20031;-76
2023/05/28 14:09:48;;;;;;;6.78;4.10;;;;;;;;;;5103455;28;20035;-76
2023/05/28 14:12:14;;;;;;;5.00;4.50;;;;;;;;;;5081371;28;20035;-76
2023/05/28 14:14:39;;;;;;;4.72;4.25;;;;;;;;;;5089450;28;20043;-74
2023/05/28 14:17:06;;;;;;;4.35;3.88;;;;;;;;;;5093840;28;20019;-75